sensor_id;sensor_type;location;lat;lon;timestamp;pressure;altitude;pressure_sealevel;temperature;humidity
12987;BME280;58897;51.960;5.582;2023-02-12T00:01:14;103577.41;;;7.30;100.00
12987;BME280;58897;51.960;5.582;2023-02-12T00:03:40;103577.41;;;7.30;100.00
12987;BME280;58897;51.960;5.582;2023-02-12T00:06:08;103574.41;;;7.19;100.00
12987;BME280;58897;51.960;5.582;2023-02-12T00:08:35;103576.06;;;7.22;100.00
12987;BME280;58897;51.960;5.582;2023-02-12T00:13:35;103574.03;;;7.27;100.00
12987;BME280;58897;51.960;5.582;2023-02-12T00:16:09;103572.41;;;7.23;100.00
12987;BME280;58897;51.960;5.582;2023-02-12T00:18:36;103566.97;;;7.24;100.00
12987;BME280;58897;51.960;5.582;2023-02-12T00:21:03;103576.84;;;7.24;100.00
12987;BME280;58897;51.960;5.582;2023-02-12T00:23:31;103578.38;;;7.29;100.00
12987;BME280;58897;51.960;5.582;2023-02-12T00:25:57;103581.25;;;7.25;100.00
12987;BME280;58897;51.960;5.582;2023-02-12T00:28:24;103580.34;;;7.26;100.00
12987;BME280;58897;51.960;5.582;2023-02-12T00:30:51;103578.56;;;7.25;100.00
12987;BME280;58897;51.960;5.582;2023-02-12T00:33:18;103582.22;;;7.24;100.00
12987;BME280;58897;51.960;5.582;2023-02-12T00:35:44;103578.66;;;7.23;100.00
12987;BME280;58897;51.960;5.582;2023-02-12T00:38:11;103576.75;;;7.25;100.00
12987;BME280;58897;51.960;5.582;2023-02-12T00:40:37;103577.88;;;7.21;100.00
12987;BME280;58897;51.960;5.582;2023-02-12T00:43:04;103575.97;;;7.23;100.00
12987;BME280;58897;51.960;5.582;2023-02-12T00:45:31;103576.91;;;7.22;100.00
12987;BME280;58897;51.960;5.582;2023-02-12T00:47:57;103578.03;;;7.18;100.00
12987;BME280;58897;51.960;5.582;2023-02-12T00:50:24;103575.44;;;7.17;100.00
12987;BME280;58897;51.960;5.582;2023-02-12T00:52:51;103578.13;;;7.17;100.00
12987;BME280;58897;51.960;5.582;2023-02-12T00:55:17;103581.00;;;7.12;100.00
12987;BME280;58897;51.960;5.582;2023-02-12T00:57:44;103578.75;;;7.22;100.00
12987;BME280;58897;51.960;5.582;2023-02-12T01:00:11;103588.88;;;7.17;100.00
12987;BME280;58897;51.960;5.582;2023-02-12T01:02:38;103582.28;;;7.22;100.00
12987;BME280;58897;51.960;5.582;2023-02-12T01:05:05;103573.44;;;7.20;100.00
12987;BME280;58897;51.960;5.582;2023-02-12T01:07:31;103572.41;;;7.23;100.00
12987;BME280;58897;51.960;5.582;2023-02-12T01:09:58;103567.28;;;7.18;100.00
12987;BME280;58897;51.960;5.582;2023-02-12T01:12:25;103583.09;;;7.24;100.00
12987;BME280;58897;51.960;5.582;2023-02-12T01:14:51;103585.78;;;7.24;100.00
12987;BME280;58897;51.960;5.582;2023-02-12T01:17:18;103580.72;;;7.18;100.00
12987;BME280;58897;51.960;5.582;2023-02-12T01:19:44;103577.25;;;7.16;100.00
12987;BME280;58897;51.960;5.582;2023-02-12T01:22:11;103569.88;;;7.20;100.00
12987;BME280;58897;51.960;5.582;2023-02-12T01:24:37;103577.09;;;7.19;100.00
12987;BME280;58897;51.960;5.582;2023-02-12T01:27:04;103573.66;;;7.16;100.00
12987;BME280;58897;51.960;5.582;2023-02-12T01:29:30;103570.91;;;7.17;100.00
12987;BME280;58897;51.960;5.582;2023-02-12T01:31:57;103570.75;;;7.20;100.00
12987;BME280;58897;51.960;5.582;2023-02-12T01:34:23;103566.78;;;7.10;100.00
12987;BME280;58897;51.960;5.582;2023-02-12T01:36:50;103566.41;;;7.18;100.00
12987;BME280;58897;51.960;5.582;2023-02-12T01:39:16;103563.00;;;7.14;100.00
12987;BME280;58897;51.960;5.582;2023-02-12T01:41:43;103562.19;;;7.12;100.00
12987;BME280;58897;51.960;5.582;2023-02-12T01:44:12;103566.53;;;7.15;100.00
12987;BME280;58897;51.960;5.582;2023-02-12T01:46:39;103560.59;;;7.08;100.00
12987;BME280;58897;51.960;5.582;2023-02-12T01:49:10;103559.72;;;7.08;100.00
12987;BME280;58897;51.960;5.582;2023-02-12T01:51:38;103566.28;;;7.02;100.00
12987;BME280;58897;51.960;5.582;2023-02-12T01:54:07;103573.47;;;7.02;100.00
12987;BME280;58897;51.960;5.582;2023-02-12T01:56:36;103571.41;;;7.07;100.00
12987;BME280;58897;51.960;5.582;2023-02-12T01:59:04;103572.25;;;7.09;100.00
12987;BME280;58897;51.960;5.582;2023-02-12T02:01:31;103576.88;;;7.05;100.00
12987;BME280;58897;51.960;5.582;2023-02-12T02:04:03;103576.16;;;7.02;100.00
12987;BME280;58897;51.960;5.582;2023-02-12T02:06:33;103573.25;;;7.06;100.00
12987;BME280;58897;51.960;5.582;2023-02-12T02:09:01;103576.97;;;7.04;100.00
12987;BME280;58897;51.960;5.582;2023-02-12T02:11:27;103565.34;;;7.03;100.00
12987;BME280;58897;51.960;5.582;2023-02-12T02:14:13;103565.34;;;7.03;100.00
12987;BME280;58897;51.960;5.582;2023-02-12T02:28:32;103569.34;;;6.95;100.00
12987;BME280;58897;51.960;5.582;2023-02-12T02:31:48;103561.88;;;7.01;100.00
12987;BME280;58897;51.960;5.582;2023-02-12T02:36:51;103559.22;;;7.00;100.00
12987;BME280;58897;51.960;5.582;2023-02-12T02:42:28;103549.22;;;7.03;100.00
12987;BME280;58897;51.960;5.582;2023-02-12T02:45:20;103543.97;;;7.00;100.00
12987;BME280;58897;51.960;5.582;2023-02-12T02:48:15;103553.13;;;6.96;100.00
12987;BME280;58897;51.960;5.582;2023-02-12T02:50:43;103549.66;;;6.94;100.00
12987;BME280;58897;51.960;5.582;2023-02-12T02:53:16;103550.63;;;6.93;100.00
12987;BME280;58897;51.960;5.582;2023-02-12T02:55:48;103553.06;;;6.98;100.00
12987;BME280;58897;51.960;5.582;2023-02-12T02:58:20;103548.94;;;6.91;100.00
12987;BME280;58897;51.960;5.582;2023-02-12T03:03:33;103547.06;;;6.93;100.00
12987;BME280;58897;51.960;5.582;2023-02-12T03:06:10;103549.72;;;6.93;100.00
12987;BME280;58897;51.960;5.582;2023-02-12T03:08:47;103543.47;;;6.92;100.00
12987;BME280;58897;51.960;5.582;2023-02-12T03:11:23;103546.41;;;6.88;100.00
12987;BME280;58897;51.960;5.582;2023-02-12T03:14:02;103541.81;;;6.90;100.00
12987;BME280;58897;51.960;5.582;2023-02-12T03:16:34;103542.56;;;6.93;100.00
12987;BME280;58897;51.960;5.582;2023-02-12T03:19:21;103542.16;;;7.01;100.00
12987;BME280;58897;51.960;5.582;2023-02-12T03:21:54;103534.09;;;7.01;100.00
12987;BME280;58897;51.960;5.582;2023-02-12T03:24:30;103537.00;;;6.96;100.00
12987;BME280;58897;51.960;5.582;2023-02-12T03:27:19;103535.34;;;6.94;100.00
12987;BME280;58897;51.960;5.582;2023-02-12T03:29:48;103533.91;;;6.87;100.00
12987;BME280;58897;51.960;5.582;2023-02-12T03:32:26;103530.97;;;6.91;100.00
12987;BME280;58897;51.960;5.582;2023-02-12T03:35:15;103533.66;;;6.91;100.00
12987;BME280;58897;51.960;5.582;2023-02-12T03:41:11;103532.81;;;6.91;100.00
12987;BME280;58897;51.960;5.582;2023-02-12T03:43:52;103538.03;;;6.94;100.00
12987;BME280;58897;51.960;5.582;2023-02-12T03:46:40;103548.94;;;6.91;100.00
12987;BME280;58897;51.960;5.582;2023-02-12T03:51:43;103553.34;;;6.92;100.00
12987;BME280;58897;51.960;5.582;2023-02-12T03:54:13;103545.53;;;6.87;100.00
12987;BME280;58897;51.960;5.582;2023-02-12T03:59:26;103554.16;;;6.94;100.00
12987;BME280;58897;51.960;5.582;2023-02-12T04:01:54;103547.94;;;6.93;100.00
12987;BME280;58897;51.960;5.582;2023-02-12T04:04:23;103556.78;;;6.95;100.00
12987;BME280;58897;51.960;5.582;2023-02-12T04:06:51;103555.03;;;6.94;100.00
12987;BME280;58897;51.960;5.582;2023-02-12T04:09:20;103562.06;;;6.97;100.00
12987;BME280;58897;51.960;5.582;2023-02-12T04:17:31;103558.88;;;6.89;100.00
12987;BME280;58897;51.960;5.582;2023-02-12T04:22:45;103565.91;;;6.91;100.00
12987;BME280;58897;51.960;5.582;2023-02-12T04:25:33;103563.59;;;6.83;100.00
12987;BME280;58897;51.960;5.582;2023-02-12T04:31:05;103572.41;;;6.87;100.00
12987;BME280;58897;51.960;5.582;2023-02-12T04:33:50;103566.78;;;6.92;100.00
12987;BME280;58897;51.960;5.582;2023-02-12T04:36:27;103563.47;;;6.87;100.00
12987;BME280;58897;51.960;5.582;2023-02-12T04:38:59;103565.34;;;6.84;100.00
12987;BME280;58897;51.960;5.582;2023-02-12T04:41:29;103564.63;;;6.81;100.00
12987;BME280;58897;51.960;5.582;2023-02-12T04:43:56;103567.25;;;6.82;100.00
12987;BME280;58897;51.960;5.582;2023-02-12T04:46:22;103569.78;;;6.86;100.00
12987;BME280;58897;51.960;5.582;2023-02-12T04:48:54;103568.69;;;6.90;100.00
12987;BME280;58897;51.960;5.582;2023-02-12T04:51:21;103567.59;;;6.94;100.00
12987;BME280;58897;51.960;5.582;2023-02-12T04:53:47;103570.06;;;6.98;100.00
12987;BME280;58897;51.960;5.582;2023-02-12T04:56:14;103573.69;;;6.97;100.00
12987;BME280;58897;51.960;5.582;2023-02-12T04:58:41;103566.50;;;6.98;100.00
12987;BME280;58897;51.960;5.582;2023-02-12T05:01:08;103575.59;;;6.95;100.00
12987;BME280;58897;51.960;5.582;2023-02-12T05:03:36;103568.78;;;6.88;100.00
12987;BME280;58897;51.960;5.582;2023-02-12T05:06:07;103573.19;;;6.89;100.00
12987;BME280;58897;51.960;5.582;2023-02-12T05:08:34;103579.06;;;6.97;100.00
12987;BME280;58897;51.960;5.582;2023-02-12T05:11:05;103575.59;;;6.95;100.00
12987;BME280;58897;51.960;5.582;2023-02-12T05:13:33;103588.88;;;6.98;100.00
12987;BME280;58897;51.960;5.582;2023-02-12T05:16:03;103586.34;;;6.95;100.00
12987;BME280;58897;51.960;5.582;2023-02-12T05:18:30;103591.56;;;6.98;100.00
12987;BME280;58897;51.960;5.582;2023-02-12T05:20:58;103594.53;;;6.92;100.00
12987;BME280;58897;51.960;5.582;2023-02-12T05:23:26;103595.34;;;6.94;100.00
12987;BME280;58897;51.960;5.582;2023-02-12T05:25:53;103592.72;;;6.93;100.00
12987;BME280;58897;51.960;5.582;2023-02-12T05:28:20;103590.94;;;6.93;100.00
12987;BME280;58897;51.960;5.582;2023-02-12T05:30:47;103589.03;;;6.95;100.00
12987;BME280;58897;51.960;5.582;2023-02-12T05:33:14;103588.28;;;6.92;100.00
12987;BME280;58897;51.960;5.582;2023-02-12T05:35:40;103589.69;;;7.00;100.00
12987;BME280;58897;51.960;5.582;2023-02-12T05:38:07;103577.31;;;6.96;100.00
12987;BME280;58897;51.960;5.582;2023-02-12T05:40:33;103588.88;;;6.98;100.00
12987;BME280;58897;51.960;5.582;2023-02-12T05:43:01;103591.34;;;7.03;100.00
12987;BME280;58897;51.960;5.582;2023-02-12T05:45:27;103594.25;;;6.98;100.00
12987;BME280;58897;51.960;5.582;2023-02-12T05:47:55;103594.25;;;6.98;100.00
12987;BME280;58897;51.960;5.582;2023-02-12T05:50:21;103596.31;;;6.93;100.00
12987;BME280;58897;51.960;5.582;2023-02-12T05:52:48;103598.09;;;6.93;100.00
12987;BME280;58897;51.960;5.582;2023-02-12T05:55:14;103604.56;;;6.89;100.00
12987;BME280;58897;51.960;5.582;2023-02-12T05:57:41;103586.41;;;6.94;100.00
12987;BME280;58897;51.960;5.582;2023-02-12T06:00:08;103596.22;;;6.95;100.00
12987;BME280;58897;51.960;5.582;2023-02-12T06:02:35;103592.66;;;6.94;100.00
12987;BME280;58897;51.960;5.582;2023-02-12T06:05:02;103592.28;;;7.02;100.00
12987;BME280;58897;51.960;5.582;2023-02-12T06:07:28;103594.25;;;6.98;100.00
12987;BME280;58897;51.960;5.582;2023-02-12T06:09:55;103596.06;;;6.98;100.00
12987;BME280;58897;51.960;5.582;2023-02-12T06:12:21;103598.81;;;6.96;100.00
12987;BME280;58897;51.960;5.582;2023-02-12T06:14:48;103605.16;;;6.95;100.00
12987;BME280;58897;51.960;5.582;2023-02-12T06:17:14;103595.56;;;6.90;100.00
12987;BME280;58897;51.960;5.582;2023-02-12T06:19:41;103595.56;;;6.90;100.00
12987;BME280;58897;51.960;5.582;2023-02-12T06:22:07;103608.91;;;6.91;100.00
12987;BME280;58897;51.960;5.582;2023-02-12T06:24:34;103609.13;;;6.87;100.00
12987;BME280;58897;51.960;5.582;2023-02-12T06:27:02;103606.22;;;6.91;100.00
12987;BME280;58897;51.960;5.582;2023-02-12T06:29:29;103605.19;;;6.94;100.00
12987;BME280;58897;51.960;5.582;2023-02-12T06:31:55;103600.56;;;6.97;100.00
12987;BME280;58897;51.960;5.582;2023-02-12T06:34:22;103599.91;;;6.92;100.00
12987;BME280;58897;51.960;5.582;2023-02-12T06:36:48;103600.78;;;6.93;100.00
12987;BME280;58897;51.960;5.582;2023-02-12T06:39:16;103601.50;;;6.96;100.00
12987;BME280;58897;51.960;5.582;2023-02-12T06:41:43;103600.06;;;6.89;100.00
12987;BME280;58897;51.960;5.582;2023-02-12T06:44:11;103597.09;;;6.95;100.00
12987;BME280;58897;51.960;5.582;2023-02-12T06:46:37;103604.28;;;6.95;100.00
12987;BME280;58897;51.960;5.582;2023-02-12T06:49:04;103602.59;;;6.92;100.00
12987;BME280;58897;51.960;5.582;2023-02-12T06:51:30;103601.59;;;6.95;100.00
12987;BME280;58897;51.960;5.582;2023-02-12T06:53:57;103610.53;;;6.95;100.00
12987;BME280;58897;51.960;5.582;2023-02-12T06:56:25;103615.47;;;6.86;100.00
12987;BME280;58897;51.960;5.582;2023-02-12T06:58:57;103612.97;;;6.81;100.00
12987;BME280;58897;51.960;5.582;2023-02-12T07:01:26;103611.69;;;6.90;100.00
12987;BME280;58897;51.960;5.582;2023-02-12T07:03:58;103613.25;;;6.94;100.00
12987;BME280;58897;51.960;5.582;2023-02-12T07:06:26;103621.19;;;6.97;100.00
12987;BME280;58897;51.960;5.582;2023-02-12T07:08:54;103621.13;;;6.98;100.00
12987;BME280;58897;51.960;5.582;2023-02-12T07:11:25;103623.75;;;7.00;100.00
12987;BME280;58897;51.960;5.582;2023-02-12T07:13:51;103618.22;;;7.03;100.00
12987;BME280;58897;51.960;5.582;2023-02-12T07:16:18;103616.19;;;7.08;100.00
12987;BME280;58897;51.960;5.582;2023-02-12T07:18:45;103619.66;;;7.10;100.00
12987;BME280;58897;51.960;5.582;2023-02-12T07:21:13;103621.47;;;7.09;100.00
12987;BME280;58897;51.960;5.582;2023-02-12T07:23:40;103619.66;;;7.10;100.00
12987;BME280;58897;51.960;5.582;2023-02-12T07:26:10;103622.66;;;7.04;100.00
12987;BME280;58897;51.960;5.582;2023-02-12T07:28:38;103633.41;;;7.04;100.00
12987;BME280;58897;51.960;5.582;2023-02-12T07:33:34;103634.22;;;7.06;100.00
12987;BME280;58897;51.960;5.582;2023-02-12T07:36:01;103636.94;;;7.04;100.00
12987;BME280;58897;51.960;5.582;2023-02-12T07:38:28;103637.19;;;7.00;100.00
12987;BME280;58897;51.960;5.582;2023-02-12T07:40:55;103641.03;;;6.94;100.00
12987;BME280;58897;51.960;5.582;2023-02-12T07:43:24;103644.59;;;6.95;100.00
12987;BME280;58897;51.960;5.582;2023-02-12T07:45:50;103645.38;;;6.97;100.00
12987;BME280;58897;51.960;5.582;2023-02-12T07:48:17;103638.56;;;6.90;100.00
12987;BME280;58897;51.960;5.582;2023-02-12T07:50:44;103639.88;;;7.00;100.00
12987;BME280;58897;51.960;5.582;2023-02-12T07:53:10;103648.66;;;7.03;100.00
12987;BME280;58897;51.960;5.582;2023-02-12T07:55:36;103651.41;;;7.02;100.00
12987;BME280;58897;51.960;5.582;2023-02-12T07:58:03;103654.97;;;7.02;100.00
12987;BME280;58897;51.960;5.582;2023-02-12T08:00:29;103648.66;;;7.03;100.00
12987;BME280;58897;51.960;5.582;2023-02-12T08:02:56;103650.09;;;6.92;100.00
12987;BME280;58897;51.960;5.582;2023-02-12T08:05:22;103660.06;;;6.90;100.00
12987;BME280;58897;51.960;5.582;2023-02-12T08:07:49;103654.41;;;6.96;100.00
12987;BME280;58897;51.960;5.582;2023-02-12T08:10:15;103654.91;;;7.04;100.00
12987;BME280;58897;51.960;5.582;2023-02-12T08:12:45;103663.53;;;7.10;100.00
12987;BME280;58897;51.960;5.582;2023-02-12T08:15:11;103659.41;;;7.03;100.00
12987;BME280;58897;51.960;5.582;2023-02-12T08:17:38;103659.09;;;7.09;100.00
12987;BME280;58897;51.960;5.582;2023-02-12T08:20:05;103663.63;;;7.09;100.00
12987;BME280;58897;51.960;5.582;2023-02-12T08:22:31;103670.44;;;7.16;100.00
12987;BME280;58897;51.960;5.582;2023-02-12T08:24:58;103669.72;;;7.12;100.00
12987;BME280;58897;51.960;5.582;2023-02-12T08:27:24;103679.44;;;7.15;100.00
12987;BME280;58897;51.960;5.582;2023-02-12T08:29:51;103679.31;;;7.18;100.00
12987;BME280;58897;51.960;5.582;2023-02-12T08:32:17;103686.31;;;7.22;100.00
12987;BME280;58897;51.960;5.582;2023-02-12T08:34:44;103686.44;;;7.19;100.00
12987;BME280;58897;51.960;5.582;2023-02-12T08:37:10;103684.81;;;7.15;100.00
12987;BME280;58897;51.960;5.582;2023-02-12T08:39:37;103689.69;;;7.25;100.00
12987;BME280;58897;51.960;5.582;2023-02-12T08:42:03;103687.31;;;7.19;100.00
12987;BME280;58897;51.960;5.582;2023-02-12T08:44:31;103691.88;;;7.17;100.00
12987;BME280;58897;51.960;5.582;2023-02-12T08:46:57;103696.53;;;7.14;100.00
12987;BME280;58897;51.960;5.582;2023-02-12T08:49:26;103700.81;;;7.18;100.00
12987;BME280;58897;51.960;5.582;2023-02-12T08:51:55;103697.41;;;7.14;100.00
12987;BME280;58897;51.960;5.582;2023-02-12T08:54:24;103701.78;;;7.17;100.00
12987;BME280;58897;51.960;5.582;2023-02-12T08:56:56;103695.31;;;7.21;100.00
12987;BME280;58897;51.960;5.582;2023-02-12T08:59:23;103707.59;;;7.26;100.00
12987;BME280;58897;51.960;5.582;2023-02-12T09:01:50;103705.78;;;7.27;100.00
12987;BME280;58897;51.960;5.582;2023-02-12T09:04:23;103706.47;;;7.30;100.00
12987;BME280;58897;51.960;5.582;2023-02-12T09:06:50;103708.50;;;7.25;100.00
12987;BME280;58897;51.960;5.582;2023-02-12T09:09:17;103706.47;;;7.30;100.00
12987;BME280;58897;51.960;5.582;2023-02-12T09:11:45;103703.38;;;7.21;100.00
12987;BME280;58897;51.960;5.582;2023-02-12T09:14:14;103701.47;;;7.23;100.00
12987;BME280;58897;51.960;5.582;2023-02-12T09:16:42;103708.22;;;7.31;100.00
12987;BME280;58897;51.960;5.582;2023-02-12T09:19:11;103702.56;;;7.37;100.00
12987;BME280;58897;51.960;5.582;2023-02-12T09:21:38;103705.81;;;7.44;100.00
12987;BME280;58897;51.960;5.582;2023-02-12T09:24:05;103701.38;;;7.43;100.00
12987;BME280;58897;51.960;5.582;2023-02-12T09:26:31;103702.34;;;7.42;100.00
12987;BME280;58897;51.960;5.582;2023-02-12T09:29:00;103710.28;;;7.45;100.00
12987;BME280;58897;51.960;5.582;2023-02-12T09:31:29;103704.66;;;7.50;100.00
12987;BME280;58897;51.960;5.582;2023-02-12T09:34:01;103696.19;;;7.40;100.00
12987;BME280;58897;51.960;5.582;2023-02-12T09:36:28;103706.56;;;7.47;100.00
12987;BME280;58897;51.960;5.582;2023-02-12T09:38:55;103705.19;;;7.39;100.00
12987;BME280;58897;51.960;5.582;2023-02-12T09:45:31;103703.72;;;7.51;100.00
12987;BME280;58897;51.960;5.582;2023-02-12T09:52:59;103706.63;;;7.46;100.00
12987;BME280;58897;51.960;5.582;2023-02-12T09:55:29;103704.38;;;7.56;100.00
12987;BME280;58897;51.960;5.582;2023-02-12T09:57:57;103701.50;;;7.59;100.00
12987;BME280;58897;51.960;5.582;2023-02-12T10:00:27;103702.19;;;7.64;100.00
12987;BME280;58897;51.960;5.582;2023-02-12T10:03:00;103703.03;;;7.64;100.00
12987;BME280;58897;51.960;5.582;2023-02-12T10:05:34;103707.97;;;7.73;100.00
12987;BME280;58897;51.960;5.582;2023-02-12T10:11:15;103703.34;;;7.58;100.00
12987;BME280;58897;51.960;5.582;2023-02-12T10:16:41;103707.19;;;7.71;100.00
12987;BME280;58897;51.960;5.582;2023-02-12T10:19:26;103702.88;;;7.67;100.00
12987;BME280;58897;51.960;5.582;2023-02-12T10:24:43;103700.91;;;7.71;100.00
12987;BME280;58897;51.960;5.582;2023-02-12T10:27:16;103701.16;;;7.66;100.00
12987;BME280;58897;51.960;5.582;2023-02-12T10:29:46;103704.63;;;7.68;100.00
12987;BME280;58897;51.960;5.582;2023-02-12T10:32:26;103696.63;;;7.67;100.00
12987;BME280;58897;51.960;5.582;2023-02-12T10:34:54;103692.91;;;7.69;100.00
12987;BME280;58897;51.960;5.582;2023-02-12T10:37:42;103701.06;;;7.68;100.00
12987;BME280;58897;51.960;5.582;2023-02-12T10:40:22;103706.06;;;7.75;100.00
12987;BME280;58897;51.960;5.582;2023-02-12T10:42:53;103701.66;;;7.74;100.00
12987;BME280;58897;51.960;5.582;2023-02-12T10:45:24;103706.00;;;7.77;100.00
12987;BME280;58897;51.960;5.582;2023-02-12T10:47:59;103696.81;;;7.81;100.00
12987;BME280;58897;51.960;5.582;2023-02-12T10:50:36;103704.41;;;7.73;100.00
12987;BME280;58897;51.960;5.582;2023-02-12T10:53:04;103701.97;;;7.85;100.00
12987;BME280;58897;51.960;5.582;2023-02-12T10:55:33;103700.44;;;7.80;100.00
12987;BME280;58897;51.960;5.582;2023-02-12T10:58:01;103701.81;;;7.88;100.00
12987;BME280;58897;51.960;5.582;2023-02-12T11:00:32;103703.56;;;7.89;100.00
12987;BME280;58897;51.960;5.582;2023-02-12T11:05:41;103712.09;;;7.80;100.00
12987;BME280;58897;51.960;5.582;2023-02-12T11:08:33;103703.78;;;7.85;100.00
12987;BME280;58897;51.960;5.582;2023-02-12T11:11:21;103713.94;;;7.97;100.00
12987;BME280;58897;51.960;5.582;2023-02-12T11:14:03;103705.88;;;7.97;100.00
12987;BME280;58897;51.960;5.582;2023-02-12T11:16:50;103707.94;;;7.92;100.00
12987;BME280;58897;51.960;5.582;2023-02-12T11:19:27;103708.38;;;7.83;100.00
12987;BME280;58897;51.960;5.582;2023-02-12T11:22:11;103705.44;;;7.87;100.00
12987;BME280;58897;51.960;5.582;2023-02-12T11:24:45;103699.22;;;8.04;100.00
12987;BME280;58897;51.960;5.582;2023-02-12T11:29:42;103692.72;;;7.91;100.00
12987;BME280;58897;51.960;5.582;2023-02-12T11:32:18;103698.69;;;7.97;100.00
12987;BME280;58897;51.960;5.582;2023-02-12T11:35:18;103694.38;;;7.93;100.00
12987;BME280;58897;51.960;5.582;2023-02-12T11:37:57;103683.28;;;7.82;100.00
12987;BME280;58897;51.960;5.582;2023-02-12T11:40:27;103691.94;;;7.89;100.00
12987;BME280;58897;51.960;5.582;2023-02-12T11:43:05;103690.75;;;7.94;100.00
12987;BME280;58897;51.960;5.582;2023-02-12T11:45:47;103684.41;;;7.95;100.00
12987;BME280;58897;51.960;5.582;2023-02-12T11:48:36;103689.72;;;7.97;100.00
12987;BME280;58897;51.960;5.582;2023-02-12T11:51:07;103691.88;;;8.07;100.00
12987;BME280;58897;51.960;5.582;2023-02-12T11:53:39;103683.31;;;7.99;100.00
12987;BME280;58897;51.960;5.582;2023-02-12T11:56:13;103684.19;;;8.00;100.00
12987;BME280;58897;51.960;5.582;2023-02-12T11:58:40;103683.69;;;8.09;100.00
12987;BME280;58897;51.960;5.582;2023-02-12T12:01:29;103679.44;;;8.05;100.00
12987;BME280;58897;51.960;5.582;2023-02-12T12:04:06;103669.31;;;8.10;100.00
12987;BME280;58897;51.960;5.582;2023-02-12T12:12:03;103656.56;;;8.31;100.00
12987;BME280;58897;51.960;5.582;2023-02-12T12:14:52;103651.41;;;8.26;100.00
12987;BME280;58897;51.960;5.582;2023-02-12T12:18:08;103654.97;;;8.44;100.00
12987;BME280;58897;51.960;5.582;2023-02-12T12:21:06;103637.34;;;8.54;100.00
12987;BME280;58897;51.960;5.582;2023-02-12T12:23:36;103639.50;;;8.47;100.00
12987;BME280;58897;51.960;5.582;2023-02-12T12:26:28;103639.75;;;8.43;100.00
12987;BME280;58897;51.960;5.582;2023-02-12T12:29:09;103635.84;;;8.48;100.00
12987;BME280;58897;51.960;5.582;2023-02-12T12:31:40;103631.41;;;8.47;100.00
12987;BME280;58897;51.960;5.582;2023-02-12T12:34:11;103623.25;;;8.49;100.00
12987;BME280;58897;51.960;5.582;2023-02-12T12:39:33;103621.19;;;8.54;100.00
12987;BME280;58897;51.960;5.582;2023-02-12T12:42:30;103626.47;;;8.55;100.00
12987;BME280;58897;51.960;5.582;2023-02-12T12:46:00;103616.59;;;8.56;100.00
12987;BME280;58897;51.960;5.582;2023-02-12T12:57:09;103618.16;;;8.60;100.00
12987;BME280;58897;51.960;5.582;2023-02-12T13:02:53;103611.59;;;8.48;100.00
12987;BME280;58897;51.960;5.582;2023-02-12T13:05:50;103613.28;;;8.51;100.00
12987;BME280;58897;51.960;5.582;2023-02-12T13:08:42;103605.94;;;8.37;100.00
12987;BME280;58897;51.960;5.582;2023-02-12T13:13:49;103613.44;;;8.48;100.00
12987;BME280;58897;51.960;5.582;2023-02-12T13:16:31;103608.91;;;8.48;100.00
12987;BME280;58897;51.960;5.582;2023-02-12T13:19:12;103609.06;;;8.45;100.00
12987;BME280;58897;51.960;5.582;2023-02-12T13:21:50;103596.91;;;8.38;100.00
12987;BME280;58897;51.960;5.582;2023-02-12T13:24:40;103599.78;;;8.51;100.00
12987;BME280;58897;51.960;5.582;2023-02-12T13:27:15;103601.56;;;8.52;100.00
12987;BME280;58897;51.960;5.582;2023-02-12T13:29:52;103595.81;;;8.58;100.00
12987;BME280;58897;51.960;5.582;2023-02-12T13:32:23;103591.91;;;8.63;100.00
12987;BME280;58897;51.960;5.582;2023-02-12T13:34:53;103587.41;;;8.64;100.00
12987;BME280;58897;51.960;5.582;2023-02-12T13:37:33;103595.41;;;8.65;100.00
12987;BME280;58897;51.960;5.582;2023-02-12T13:40:03;103598.94;;;8.66;100.00
12987;BME280;58897;51.960;5.582;2023-02-12T13:50:50;103592.63;;;8.67;100.00
12987;BME280;58897;51.960;5.582;2023-02-12T13:58:54;103583.41;;;8.71;100.00
12987;BME280;58897;51.960;5.582;2023-02-12T14:01:44;103582.44;;;8.56;100.00
12987;BME280;58897;51.960;5.582;2023-02-12T14:07:03;103571.50;;;8.59;100.00
12987;BME280;58897;51.960;5.582;2023-02-12T14:15:20;103576.44;;;8.51;100.00
12987;BME280;58897;51.960;5.582;2023-02-12T14:17:54;103575.22;;;8.57;100.00
12987;BME280;58897;51.960;5.582;2023-02-12T14:20:26;103575.69;;;8.65;100.00
12987;BME280;58897;51.960;5.582;2023-02-12T14:25:38;103574.34;;;8.56;100.00
12987;BME280;58897;51.960;5.582;2023-02-12T14:28:46;103570.72;;;8.57;100.00
12987;BME280;58897;51.960;5.582;2023-02-12T14:41:48;103556.19;;;8.60;100.00
12987;BME280;58897;51.960;5.582;2023-02-12T14:46:54;103562.53;;;8.59;100.00
12987;BME280;58897;51.960;5.582;2023-02-12T14:49:33;103558.91;;;8.60;100.00
12987;BME280;58897;51.960;5.582;2023-02-12T14:54:51;103554.78;;;8.53;100.00
12987;BME280;58897;51.960;5.582;2023-02-12T14:57:35;103553.22;;;8.49;100.00
12987;BME280;58897;51.960;5.582;2023-02-12T15:02:44;103564.72;;;8.52;100.00
12987;BME280;58897;51.960;5.582;2023-02-12T15:05:23;103557.41;;;8.54;100.00
12987;BME280;58897;51.960;5.582;2023-02-12T15:07:59;103561.81;;;8.55;100.00
12987;BME280;58897;51.960;5.582;2023-02-12T15:10:34;103555.59;;;8.55;100.00
12987;BME280;58897;51.960;5.582;2023-02-12T15:13:28;103555.03;;;8.48;100.00
12987;BME280;58897;51.960;5.582;2023-02-12T15:18:53;103551.47;;;8.48;100.00
12987;BME280;58897;51.960;5.582;2023-02-12T15:21:27;103560.44;;;8.48;100.00
12987;BME280;58897;51.960;5.582;2023-02-12T15:24:01;103549.75;;;8.47;100.00
12987;BME280;58897;51.960;5.582;2023-02-12T15:26:31;103550.69;;;8.46;100.00
12987;BME280;58897;51.960;5.582;2023-02-12T15:28:59;103553.28;;;8.47;100.00
12987;BME280;58897;51.960;5.582;2023-02-12T15:31:28;103549.03;;;8.43;100.00